Chaska, MN (55318)

11:49 PM CDT on May 25, 2017 (GMT -0500)
| | Change Station
Active Advisory: Flood Warning

Elev -9999 ft 0.00 °N, 0.00 °E | Updated 10 minutes ago

Overcast
Overcast
°F
Feels Like °F
N
Wind Variable Wind from North
Gusts mph

Today
High -- | Low -- °F
--% Chance of Precip.
Yesterday
High -- | Low -- °F
Precip. -- in
Pressure 29.68 in
Visibility 10.0 miles
Clouds Few 6500 ft
Overcast 10000 ft
Dew Point Not available.
Humidity Not available.
Rainfall --
Snow Depth Not available.
5:36 AM 8:47 PM
New Moon, 0% visible
METAR KFCM 260353Z AUTO 15005KT 10SM -RA FEW065 OVC100 17/12 A2968 RMK AO2 RAE00B30 SLP049 P0000 T01720122
Pressure 29.68 in
Visibility 10.0 miles
Clouds Few 6500 ft
Overcast 10000 ft
Dew Point Not available.
Humidity Not available.
Rainfall --
Snow Depth Not available.
5:36 AM 8:47 PM
New Moon, 0% visible
METAR KFCM 260353Z AUTO 15005KT 10SM -RA FEW065 OVC100 17/12 A2968 RMK AO2 RAE00B30 SLP049 P0000 T01720122

Get Your Daily Forecast Email!

Thanks for signing up!

Be on the lookout for a verification email in your inbox.

You'll start receiving severe weather alerts in your inbox..

×

10-Day Weather Forecast

Almanac

Astronomy

May. 25, 2017 Rise Set
Actual Time
Civil Twilight
Nautical Twilight
Astronomical Twilight
Moon
Length of Visible Light
Length of Day
Tomorrow will be .
, % of the Moon is Illuminated

Today's Extremes

State Highs State Lows

Community

WunderPhotos

Category 6

Welcome to Category 6. This is the collective home for Weather Underground's featured writeups by Dr. Jeff Masters (right), Bob Henson (left), Chris Burt, and other regular contributors.

Nearby

Air Quality

  Air Quality AQ Index Pollutant
Not available.

Snow Depth

Station Depth Elevation

Earthquake Activity

City Distance Mag. Time & Date
Minimum magnitude displayed is 2.5.

Coastal Water Temperatures

Place Temperature

Stations

Nearby Weather Stations

Station Location Temp. Windchill Dew Point Humidity Wind Precip. Elev Updated Type
                   

Watches & Warnings

Flood Warning
Issued: 7:54 PM CDT May. 25, 2017 – National Weather Service

... Flood Warning now expected to end Saturday evening...
the Flood Warning continues for the South Fork Crow River
below Mayer.
* Until Saturday evening.
* At 7:30 PM Thursday the stage was 11.3 feet.
* Minor flooding is occurring and minor flooding is forecast to continue.
* Flood stage is 11.0 feet.
* Forecast... the river will continue rising to near 11.4 feet after
midnight tonight.
The river will fall below flood stage Saturday evening.
* Impact... at 12.0 feet... flooding affects mill Avenue from Watertown
to the Wright County line; Yancy Avenue between Carver County Road
30 and 78th street; Vega Avenue between Carver County Road 33 and
94th street; and the intersection of Union Avenue and 82nd street.
* Impact... at 11.0 feet... Carver County Road 123 is closed north of
Highway 7 to 42nd street.


Lat... Lon 4498 9390 4498 9377 4483 9390 4486 9399

Carlyon